Congerville, Illinois
Current Conditions -  °F | °C
As of 11:56 PM on Thursday 27 Nov 2014 (Local Time) from KBMI Reporting Station
Broken Clouds Broken Clouds  
Wind Chill:   Ceiling: 11000
Heat Index: 14°   Visibility: 10mi
Dew Point: 11°   Wind: 6mph
Humidity: 88%   Direction: 230°SW
Pressure: 30.41"   Gusts: NA
Location:  40.62°N, 89.2°W
Report Text: KBMI 280556Z AUTO 23005KT 10SM BKN110 M10/M12 A3041 RMK AO2 55004 60000 T11001116 11061 21111 410271111 SLP322
Loading
Personal Weather Stations






























Interactive Weather Map New forecast layout! Learn more

10-Day Weather Forecast

Advertisements
Track Severe Weather on mobile